createdAt,value
2022-08-12T00:02:03.096Z,102192.09
2022-08-12T00:05:06.319Z,102135.38
2022-08-12T00:07:52.527Z,102149.88
2022-08-12T00:10:38.500Z,102168.22
2022-08-12T00:13:24.561Z,102177.25
2022-08-12T00:16:09.989Z,102190.00
2022-08-12T00:18:55.747Z,102186.22
2022-08-12T00:21:41.873Z,102185.72
2022-08-12T00:24:31.232Z,102192.41
2022-08-12T00:27:16.929Z,102190.19
2022-08-12T00:30:02.325Z,102197.25
2022-08-12T00:32:54.877Z,102199.16
2022-08-12T00:35:42.030Z,102207.41
2022-08-12T00:38:26.948Z,102209.47
2022-08-12T00:41:13.110Z,102210.50
2022-08-12T00:43:43.059Z,102222.91
2022-08-12T00:46:28.107Z,102231.25
2022-08-12T00:48:55.251Z,102223.25
2022-08-12T00:51:22.389Z,102245.50
2022-08-12T00:53:48.912Z,102245.84
2022-08-12T00:56:15.633Z,102254.56
2022-08-12T00:58:47.914Z,102268.84
2022-08-12T01:01:15.498Z,102275.28
2022-08-12T01:04:05.712Z,102272.09
2022-08-12T01:06:53.934Z,102272.25
2022-08-12T01:09:40.747Z,102287.38
2022-08-12T01:12:10.815Z,102294.72
2022-08-12T01:14:37.747Z,102304.13
2022-08-12T01:17:05.173Z,102309.38
2022-08-12T01:19:32.447Z,102319.50
2022-08-12T01:22:31.494Z,102319.50
2022-08-12T01:25:06.799Z,102321.22
2022-08-12T01:27:38.134Z,102342.56
2022-08-12T01:30:08.722Z,102336.16
2022-08-12T01:32:38.526Z,102350.56
2022-08-12T01:35:11.852Z,102347.34
2022-08-12T01:38:04.298Z,102363.25
2022-08-12T01:40:38.160Z,102371.38
2022-08-12T01:43:09.022Z,102377.94
2022-08-12T01:45:44.385Z,102378.41
2022-08-12T01:48:34.916Z,102391.19
2022-08-12T01:52:04.514Z,102397.41
2022-08-12T01:54:06.332Z,102400.22
2022-08-12T01:56:43.688Z,102409.06
2022-08-12T01:59:34.003Z,102418.09
2022-08-12T02:02:04.962Z,102427.94
2022-08-12T02:04:57.652Z,102433.28
2022-08-12T02:07:49.239Z,102441.50
2022-08-12T02:10:53.163Z,102447.00
2022-08-12T02:13:49.525Z,102458.81
2022-08-12T02:16:35.028Z,102458.16
2022-08-12T02:19:22.096Z,102464.84
2022-08-12T02:21:58.309Z,102468.72
2022-08-12T02:24:31.271Z,102465.13
2022-08-12T02:26:59.505Z,102456.34
2022-08-12T02:29:26.738Z,102465.97
2022-08-12T02:31:54.079Z,102476.72
2022-08-12T02:34:22.995Z,102481.38
2022-08-12T02:36:55.945Z,102490.31
2022-08-12T02:39:26.639Z,102493.78
2022-08-12T02:41:55.740Z,102495.94
2022-08-12T02:44:24.118Z,102505.97
2022-08-12T02:46:53.663Z,102505.72
2022-08-12T02:49:31.418Z,102511.38
2022-08-12T02:52:00.176Z,102517.44
2022-08-12T02:54:27.201Z,102522.84
2022-08-12T02:56:55.424Z,102524.69
2022-08-12T02:59:24.286Z,102526.69
2022-08-12T03:01:54.430Z,102538.22
2022-08-12T03:04:27.067Z,102550.53
2022-08-12T03:07:32.666Z,102555.31
2022-08-12T03:10:17.805Z,102561.16
2022-08-12T03:13:03.988Z,102563.75
2022-08-12T03:15:31.287Z,102578.25
2022-08-12T03:18:26.905Z,102575.56
2022-08-12T03:20:54.847Z,102575.69
2022-08-12T03:23:29.548Z,102574.38
2022-08-12T03:25:58.881Z,102580.56
2022-08-12T03:28:44.100Z,102586.75
2022-08-12T03:31:11.255Z,102598.19
2022-08-12T03:33:40.272Z,102601.69
2022-08-12T03:36:08.776Z,102600.19
2022-08-12T03:38:40.323Z,102609.91
2022-08-12T03:41:33.092Z,102611.22
2022-08-12T03:44:30.042Z,102618.22
2022-08-12T03:47:23.727Z,102617.53
2022-08-12T03:50:10.177Z,102628.94
2022-08-12T03:52:55.422Z,102633.34
2022-08-12T03:55:40.501Z,102643.97
2022-08-12T03:58:25.922Z,102637.97
2022-08-12T04:00:52.757Z,102649.25
2022-08-12T04:03:39.460Z,102650.25
2022-08-12T04:06:08.767Z,102650.75
2022-08-12T04:08:35.957Z,102649.13
2022-08-12T04:11:22.092Z,102642.50
2022-08-12T04:13:48.777Z,102649.75
2022-08-12T04:16:17.041Z,102656.69
2022-08-12T04:18:44.357Z,102660.41
2022-08-12T04:21:10.924Z,102667.59
2022-08-12T04:23:40.946Z,102719.09
2022-08-12T04:26:09.085Z,102716.44
2022-08-12T04:28:36.214Z,102773.19
2022-08-12T04:31:02.719Z,102791.84
2022-08-12T04:33:29.185Z,102862.59
2022-08-12T04:35:56.216Z,102954.91
2022-08-12T04:38:23.947Z,102959.13
2022-08-12T04:40:51.759Z,102959.81
2022-08-12T04:44:01.114Z,102966.41
2022-08-12T04:46:04.821Z,102961.38
2022-08-12T04:48:31.287Z,102949.47
2022-08-12T04:50:58.357Z,102948.38
2022-08-12T04:53:25.014Z,102950.34
2022-08-12T04:55:52.220Z,102948.31
2022-08-12T04:58:29.578Z,102940.19
2022-08-12T05:00:57.301Z,102941.81
2022-08-12T05:03:26.482Z,102943.56
2022-08-12T05:05:56.562Z,102933.31
2022-08-12T05:08:24.402Z,102932.19
2022-08-12T05:10:51.228Z,102930.91
2022-08-12T05:13:21.386Z,102928.03
2022-08-12T05:16:05.178Z,102918.44
2022-08-12T05:18:39.129Z,102916.38
2022-08-12T05:21:08.064Z,102906.00
2022-08-12T05:23:37.888Z,102887.66
2022-08-12T05:26:06.074Z,102873.34
2022-08-12T05:28:32.941Z,102856.81
2022-08-12T05:31:02.040Z,102829.78
2022-08-12T05:33:38.310Z,102803.69
2022-08-12T05:36:10.040Z,102779.53
2022-08-12T05:38:55.040Z,102741.50
2022-08-12T05:41:22.786Z,102715.38
2022-08-12T05:43:54.460Z,102700.25
2022-08-12T05:46:22.430Z,102656.97
2022-08-12T05:48:51.166Z,102629.81
2022-08-12T05:51:18.835Z,102613.91
2022-08-12T05:53:45.537Z,102585.53
2022-08-12T05:56:26.367Z,102554.56
2022-08-12T05:58:54.540Z,102527.22
2022-08-12T06:02:09.597Z,102500.91
2022-08-12T06:04:09.474Z,102478.22
2022-08-12T06:06:41.658Z,102461.41
2022-08-12T06:09:13.210Z,102446.84
2022-08-12T06:11:53.598Z,102424.91
2022-08-12T06:14:28.151Z,102401.38
2022-08-12T06:16:55.159Z,102380.09
2022-08-12T06:19:21.911Z,102349.84
2022-08-12T06:21:49.049Z,102338.53
2022-08-12T06:24:18.507Z,102322.84
2022-08-12T06:26:44.999Z,102300.44
2022-08-12T06:30:06.615Z,102296.75
2022-08-12T06:32:06.951Z,102293.91
2022-08-12T06:35:25.991Z,102277.78
2022-08-12T06:37:20.947Z,102281.34
2022-08-12T06:39:51.937Z,102254.53
2022-08-12T06:42:37.082Z,102254.06
2022-08-12T06:45:05.526Z,102257.00
2022-08-12T06:47:36.742Z,102245.34
2022-08-12T06:50:03.485Z,102241.84
2022-08-12T06:52:31.272Z,102240.00
2022-08-12T06:54:59.845Z,102228.00
2022-08-12T06:58:05.185Z,102231.44
2022-08-12T07:00:22.502Z,102221.84
2022-08-12T07:02:57.905Z,102223.69
2022-08-12T07:05:25.113Z,102227.72
2022-08-12T07:08:01.477Z,102227.81
2022-08-12T07:10:41.009Z,102217.78
2022-08-12T07:13:09.456Z,102220.06
2022-08-12T07:15:36.242Z,102212.09
2022-08-12T07:18:11.839Z,102220.44
2022-08-12T07:20:52.302Z,102213.09
2022-08-12T07:23:20.061Z,102208.19
2022-08-12T07:25:46.677Z,102209.06
2022-08-12T07:28:17.376Z,102222.56
2022-08-12T07:30:45.728Z,102219.16
2022-08-12T07:33:12.969Z,102230.38
2022-08-12T07:35:47.954Z,102238.00
2022-08-12T07:38:43.801Z,102239.19
2022-08-12T07:41:15.898Z,102236.00
2022-08-12T07:43:48.525Z,102242.22
2022-08-12T07:46:20.455Z,102240.16
2022-08-12T07:48:48.937Z,102243.66
2022-08-12T07:51:25.469Z,102257.56
2022-08-12T07:54:01.108Z,102258.44
2022-08-12T07:56:31.155Z,102247.28
2022-08-12T07:58:58.988Z,102246.09
2022-08-12T08:01:25.541Z,102244.03
2022-08-12T08:04:16.492Z,102249.53
2022-08-12T08:06:45.633Z,102245.19
2022-08-12T08:09:14.368Z,102258.16
2022-08-12T08:11:59.924Z,102272.34
2022-08-12T08:14:29.265Z,102263.88
2022-08-12T08:16:57.922Z,102258.09
2022-08-12T08:19:25.414Z,102261.78
2022-08-12T08:21:54.160Z,102278.66
2022-08-12T08:24:24.503Z,102263.97
2022-08-12T08:26:54.251Z,102276.66
2022-08-12T08:29:21.980Z,102272.09
2022-08-12T08:31:58.621Z,102269.50
2022-08-12T08:34:40.265Z,102278.22
2022-08-12T08:37:17.241Z,102280.59
2022-08-12T08:39:44.029Z,102273.50
2022-08-12T08:42:29.188Z,102268.81
2022-08-12T08:44:58.015Z,102258.88
2022-08-12T08:47:24.761Z,102266.47
2022-08-12T08:49:51.262Z,102255.97
2022-08-12T08:52:45.493Z,102261.53
2022-08-12T08:55:14.133Z,102267.13
2022-08-12T08:57:44.745Z,102273.66
2022-08-12T09:00:15.256Z,102290.69
2022-08-12T09:02:49.128Z,102306.25
2022-08-12T09:05:25.736Z,102316.78
2022-08-12T09:08:08.959Z,102346.81
2022-08-12T09:10:39.106Z,102390.53
2022-08-12T09:14:10.603Z,102439.97
2022-08-12T09:16:21.328Z,102489.31
2022-08-12T09:18:52.249Z,102514.44
2022-08-12T09:21:19.937Z,102506.06
2022-08-12T09:24:00.665Z,102486.66
2022-08-12T09:30:09.705Z,102461.72
2022-08-12T09:32:11.543Z,102468.53
2022-08-12T09:34:56.789Z,102467.00
2022-08-12T09:37:28.233Z,102459.09
2022-08-12T09:41:01.652Z,102440.94
2022-08-12T09:43:29.198Z,102459.88
2022-08-12T09:46:11.248Z,102448.38
2022-08-12T09:48:56.193Z,102433.13
2022-08-12T09:51:23.735Z,102434.44
2022-08-12T09:54:08.688Z,102433.19
2022-08-12T09:57:00.178Z,102435.34
2022-08-12T10:00:15.704Z,102445.34
2022-08-12T10:02:42.315Z,102452.34
2022-08-12T10:05:01.665Z,102464.78
2022-08-12T10:07:40.685Z,102464.34
2022-08-12T10:10:24.801Z,102473.00
2022-08-12T10:13:14.694Z,102479.59
2022-08-12T10:16:00.962Z,102466.34
2022-08-12T10:18:32.718Z,102474.66
2022-08-12T10:21:09.393Z,102460.84
2022-08-12T10:23:46.071Z,102458.78
2022-08-12T10:26:39.089Z,102462.13
2022-08-12T10:30:37.150Z,102446.16
2022-08-12T10:32:43.766Z,102431.81
2022-08-12T10:35:08.478Z,102415.38
2022-08-12T10:38:37.964Z,102394.16
2022-08-12T10:40:28.728Z,102377.13
2022-08-12T10:43:16.693Z,102377.50
2022-08-12T10:45:46.210Z,102371.59
2022-08-12T10:48:21.469Z,102368.31
2022-08-12T10:51:02.327Z,102331.00
2022-08-12T10:53:45.927Z,102312.38
2022-08-12T10:56:15.332Z,102266.44
2022-08-12T10:58:44.899Z,102167.09
2022-08-12T11:01:50.466Z,102131.22
2022-08-12T11:04:20.101Z,102074.59
2022-08-12T11:07:10.318Z,101989.91
2022-08-12T11:10:00.034Z,102000.34
2022-08-12T11:12:56.077Z,101947.97
2022-08-12T11:15:24.356Z,101937.25
2022-08-12T11:18:03.073Z,101958.84
2022-08-12T11:20:31.476Z,101991.34
2022-08-12T11:23:04.229Z,101967.13
2022-08-12T11:25:57.700Z,101938.19
2022-08-12T11:28:33.747Z,101797.91
2022-08-12T11:31:03.437Z,101729.53
2022-08-12T11:34:06.236Z,101750.09
2022-08-12T11:36:17.794Z,101820.28
2022-08-12T11:38:50.438Z,101854.88
2022-08-12T11:41:31.163Z,101801.41
2022-08-12T11:43:59.372Z,101821.81
2022-08-12T11:46:25.802Z,101731.25
2022-08-12T11:48:52.869Z,101717.78
2022-08-12T11:51:20.973Z,101828.22
2022-08-12T11:53:57.413Z,101760.38
2022-08-12T11:56:38.085Z,101705.66
2022-08-12T12:02:01.965Z,101597.34
2022-08-12T12:04:31.419Z,101547.22
2022-08-12T12:07:07.647Z,101595.78
2022-08-12T12:09:51.870Z,101400.66
2022-08-12T12:12:18.598Z,101498.75
2022-08-12T12:14:54.845Z,101637.50
2022-08-12T12:17:23.893Z,101530.19
2022-08-12T12:19:50.951Z,101492.13
2022-08-12T12:22:23.065Z,101496.19
2022-08-12T12:24:51.248Z,101570.59
2022-08-12T12:27:20.327Z,101529.84
2022-08-12T12:30:19.273Z,101401.84
2022-08-12T12:32:53.750Z,101321.53
2022-08-12T12:36:19.712Z,101348.72
2022-08-12T12:38:12.746Z,101431.06
2022-08-12T12:40:43.752Z,101411.09
2022-08-12T12:43:12.029Z,101405.94
2022-08-12T12:45:44.506Z,101393.16
2022-08-12T12:48:21.127Z,101392.34
2022-08-12T12:51:13.133Z,101349.31
2022-08-12T12:54:06.187Z,101355.72
2022-08-12T12:56:34.111Z,101255.31
2022-08-12T12:59:00.950Z,101378.13
2022-08-12T13:01:31.117Z,101370.91
2022-08-12T13:04:02.723Z,101273.16
2022-08-12T13:06:30.442Z,101274.78
2022-08-12T13:09:02.470Z,101261.47
2022-08-12T13:11:41.250Z,101384.91
2022-08-12T13:14:28.141Z,101301.13
2022-08-12T13:16:55.237Z,101177.25
2022-08-12T13:19:25.075Z,101284.84
2022-08-12T13:22:23.452Z,101207.72
2022-08-12T13:24:55.692Z,101191.72
2022-08-12T13:27:41.379Z,101250.66
2022-08-12T13:30:20.292Z,101175.28
2022-08-12T13:32:58.737Z,101182.69
2022-08-12T13:35:33.456Z,101080.81
2022-08-12T13:38:02.445Z,101089.56
2022-08-12T13:40:32.204Z,101149.56
2022-08-12T13:43:02.000Z,101218.97
2022-08-12T13:45:30.820Z,101319.38
2022-08-12T13:48:00.278Z,101175.44
2022-08-12T13:50:43.429Z,101216.84
2022-08-12T13:53:24.438Z,101219.59
2022-08-12T13:56:01.539Z,101227.81
2022-08-12T13:58:30.029Z,101168.78
2022-08-12T14:00:58.082Z,101149.69
2022-08-12T14:03:28.507Z,101060.44
2022-08-12T14:06:15.499Z,101075.13
2022-08-12T14:08:43.045Z,101063.56
2022-08-12T14:11:09.855Z,101038.16
2022-08-12T14:14:05.797Z,101080.28
2022-08-12T14:16:37.969Z,101032.84
2022-08-12T14:19:20.159Z,100987.41
2022-08-12T14:22:00.828Z,100889.00
2022-08-12T14:24:35.061Z,100872.94
2022-08-12T14:27:02.937Z,100845.69
2022-08-12T14:29:55.758Z,100928.91
2022-08-12T14:32:18.081Z,100952.25
2022-08-12T14:34:46.468Z,101026.00
2022-08-12T14:37:55.246Z,101055.34
2022-08-12T14:40:01.171Z,101054.75
2022-08-12T14:42:28.223Z,100934.06
2022-08-12T14:45:01.156Z,100910.38
2022-08-12T14:47:29.394Z,100940.19
2022-08-12T14:50:37.370Z,100851.81
2022-08-12T14:56:59.850Z,100950.91
2022-08-12T14:58:31.853Z,100930.78
2022-08-12T15:01:21.445Z,100945.91
2022-08-12T15:03:53.930Z,100843.91
2022-08-12T15:06:44.390Z,100880.38
2022-08-12T15:09:13.997Z,100967.00
2022-08-12T15:11:55.106Z,100919.28
2022-08-12T15:14:30.313Z,100823.13
2022-08-12T15:17:00.791Z,100831.00
2022-08-12T15:20:11.476Z,100902.13
2022-08-12T15:22:36.884Z,100847.72
2022-08-12T15:25:05.471Z,100890.69
2022-08-12T15:28:03.852Z,100901.97
2022-08-12T15:30:22.612Z,100911.63
2022-08-12T15:32:50.649Z,100880.63
2022-08-12T15:35:17.252Z,100893.34
2022-08-12T15:38:08.068Z,100876.09
2022-08-12T15:40:33.131Z,100853.03
2022-08-12T15:43:04.265Z,100844.44
2022-08-12T15:45:37.394Z,100905.41
2022-08-12T15:48:16.669Z,100940.91
2022-08-12T15:50:46.778Z,101063.72
2022-08-12T15:53:37.973Z,101018.34
2022-08-12T15:56:07.813Z,100913.59
2022-08-12T15:58:43.805Z,100833.28
2022-08-12T16:01:15.326Z,100822.25
2022-08-12T16:04:00.043Z,100837.63
2022-08-12T16:06:52.157Z,100870.31
2022-08-12T16:09:21.497Z,100885.31
2022-08-12T16:11:48.768Z,100860.69
2022-08-12T16:14:17.544Z,100934.41
2022-08-12T16:16:48.725Z,100857.69
2022-08-12T16:20:02.998Z,100932.38
2022-08-12T16:22:07.092Z,100890.28
2022-08-12T16:24:42.391Z,100910.66
2022-08-12T16:27:09.795Z,100946.00
2022-08-12T16:29:52.981Z,100936.59
2022-08-12T16:32:24.037Z,100875.34
2022-08-12T16:34:55.019Z,100904.78
2022-08-12T16:38:24.229Z,100903.41
2022-08-12T16:40:11.317Z,100882.81
2022-08-12T16:42:42.255Z,100889.53
2022-08-12T16:45:32.383Z,100909.38
2022-08-12T16:48:33.734Z,101008.97
2022-08-12T16:51:09.588Z,100989.84
2022-08-12T16:53:43.946Z,100983.59
2022-08-12T16:56:15.160Z,100957.94
2022-08-12T16:58:43.420Z,100949.13
2022-08-12T17:01:14.541Z,100938.69
2022-08-12T17:03:47.172Z,100946.22
2022-08-12T17:06:27.415Z,100919.41
2022-08-12T17:09:02.461Z,100983.41
2022-08-12T17:11:32.746Z,100975.69
2022-08-12T17:13:59.520Z,100972.09
2022-08-12T17:16:29.826Z,100949.72
2022-08-12T17:18:59.623Z,101014.97
2022-08-12T17:21:41.535Z,101020.66
2022-08-12T17:24:21.379Z,101032.59
2022-08-12T17:26:50.458Z,101037.19
2022-08-12T17:29:24.163Z,101087.56
2022-08-12T17:32:10.136Z,101114.13
2022-08-12T17:34:56.294Z,101168.44
2022-08-12T17:37:22.844Z,101157.66
2022-08-12T17:40:15.105Z,101210.66
2022-08-12T17:42:40.575Z,101259.16
2022-08-12T17:45:17.037Z,101353.34
2022-08-12T17:48:01.574Z,101529.25
2022-08-12T17:50:36.803Z,101630.16
2022-08-12T17:53:04.620Z,101658.47
2022-08-12T17:55:43.691Z,101685.47
2022-08-12T17:58:36.874Z,101732.09
2022-08-12T18:01:05.991Z,101794.06
2022-08-12T18:03:57.678Z,101835.47
2022-08-12T18:06:22.836Z,101870.25
2022-08-12T18:08:58.750Z,101874.78
2022-08-12T18:12:04.861Z,101909.72
2022-08-12T18:14:32.619Z,101949.47
2022-08-12T18:17:02.377Z,101962.59
2022-08-12T18:20:03.967Z,101979.91
2022-08-12T18:22:22.170Z,102002.59
2022-08-12T18:25:04.993Z,102035.25
2022-08-12T18:27:47.116Z,102055.22
2022-08-12T18:30:20.716Z,102072.72
2022-08-12T18:33:04.056Z,102088.66
2022-08-12T18:35:47.150Z,102099.31
2022-08-12T18:38:22.397Z,102114.84
2022-08-12T18:41:10.135Z,102120.94
2022-08-12T18:43:57.588Z,102136.19
2022-08-12T18:46:32.191Z,102144.81
2022-08-12T18:49:16.974Z,102161.16
2022-08-12T18:51:55.442Z,102172.41
2022-08-12T18:54:32.362Z,102183.41
2022-08-12T18:57:02.256Z,102185.09
2022-08-12T18:59:59.882Z,102195.63
2022-08-12T19:02:22.616Z,102206.16
2022-08-12T19:04:53.039Z,102197.56
2022-08-12T19:07:23.149Z,102196.25
2022-08-12T19:09:58.945Z,102194.09
2022-08-12T19:12:56.989Z,102206.31
2022-08-12T19:15:25.964Z,102202.56
2022-08-12T19:18:01.276Z,102208.97
2022-08-12T19:20:30.070Z,102218.09
2022-08-12T19:22:57.796Z,102215.84
2022-08-12T19:26:00.673Z,102206.72
2022-08-12T19:28:30.181Z,102215.72
2022-08-12T19:31:44.835Z,102213.19
2022-08-12T19:34:56.410Z,102212.25
2022-08-12T19:37:26.685Z,102212.41
2022-08-12T19:40:08.909Z,102210.81
2022-08-12T19:42:57.566Z,102220.38
2022-08-12T19:45:42.063Z,102229.16
2022-08-12T19:48:17.057Z,102225.25
2022-08-12T19:50:50.681Z,102229.38
2022-08-12T19:53:23.804Z,102232.59
2022-08-12T19:55:55.472Z,102230.03
2022-08-12T19:58:23.614Z,102226.38
2022-08-12T20:00:53.506Z,102224.06
2022-08-12T20:03:38.076Z,102229.69
2022-08-12T20:06:13.993Z,102215.50
2022-08-12T20:08:55.851Z,102229.22
2022-08-12T20:12:13.270Z,102229.38
2022-08-12T20:14:18.984Z,102232.19
2022-08-12T20:16:53.098Z,102219.44
2022-08-12T20:19:24.919Z,102216.25
2022-08-12T20:22:14.259Z,102214.75
2022-08-12T20:24:42.332Z,102210.31
2022-08-12T20:27:28.583Z,102217.41
2022-08-12T20:29:57.141Z,102212.03
2022-08-12T20:32:29.758Z,102208.84
2022-08-12T20:35:12.948Z,102212.50
2022-08-12T20:38:06.715Z,102204.78
2022-08-12T20:40:35.842Z,102209.56
2022-08-12T20:43:06.625Z,102212.00
2022-08-12T20:45:50.737Z,102210.97
2022-08-12T20:48:24.129Z,102220.53
2022-08-12T20:50:53.697Z,102217.09
2022-08-12T20:53:27.770Z,102215.13
2022-08-12T20:56:00.571Z,102215.34
2022-08-12T20:58:28.083Z,102214.41
2022-08-12T21:00:57.401Z,102219.03
2022-08-12T21:03:52.383Z,102208.72
2022-08-12T21:06:43.283Z,102200.94
2022-08-12T21:09:09.867Z,102196.16
2022-08-12T21:11:39.291Z,102196.97
2022-08-12T21:14:10.550Z,102189.84
2022-08-12T21:16:39.081Z,102186.66
2022-08-12T21:19:08.095Z,102179.81
2022-08-12T21:21:40.442Z,102169.31
2022-08-12T21:24:17.796Z,102160.22
2022-08-12T21:26:53.365Z,102138.66
2022-08-12T21:29:20.444Z,102133.53
2022-08-12T21:32:36.761Z,102116.28
2022-08-12T21:34:34.553Z,102091.69
2022-08-12T21:37:26.365Z,102078.94
2022-08-12T21:39:53.365Z,102058.50
2022-08-12T21:42:27.836Z,102036.22
2022-08-12T21:45:46.740Z,102028.59
2022-08-12T21:47:42.446Z,102030.78
2022-08-12T21:50:09.190Z,102020.75
2022-08-12T21:52:40.793Z,102029.81
2022-08-12T21:55:18.019Z,102022.53
2022-08-12T21:57:50.705Z,102020.72
2022-08-12T22:00:21.432Z,102026.53
2022-08-12T22:03:07.890Z,102025.16
2022-08-12T22:06:13.861Z,102016.19
2022-08-12T22:09:03.862Z,102018.56
2022-08-12T22:11:41.456Z,102010.53
2022-08-12T22:14:10.254Z,102016.47
2022-08-12T22:16:47.076Z,102003.72
2022-08-12T22:19:19.113Z,102018.34
2022-08-12T22:21:48.319Z,102010.75
2022-08-12T22:24:26.936Z,102010.94
2022-08-12T22:27:18.471Z,102005.78
2022-08-12T22:30:06.079Z,102002.34
2022-08-12T22:32:33.857Z,102006.22
2022-08-12T22:35:22.282Z,102008.59
2022-08-12T22:37:50.952Z,101997.09
2022-08-12T22:40:21.885Z,101994.88
2022-08-12T22:43:08.073Z,101993.59
2022-08-12T22:46:00.672Z,101974.59
2022-08-12T22:48:27.302Z,101974.81
2022-08-12T22:50:59.236Z,101974.41
2022-08-12T22:53:35.838Z,101968.38
2022-08-12T22:56:06.210Z,101964.22
2022-08-12T22:58:40.776Z,101959.47
2022-08-12T23:01:09.586Z,101954.31
2022-08-12T23:03:47.652Z,101946.91
2022-08-12T23:06:25.632Z,101944.75
2022-08-12T23:08:55.149Z,101937.81
2022-08-12T23:11:23.754Z,101930.94
2022-08-12T23:13:56.782Z,101916.66
2022-08-12T23:16:31.537Z,101905.63
2022-08-12T23:19:09.803Z,101900.91
2022-08-12T23:22:04.224Z,101894.88
2022-08-12T23:24:35.044Z,101885.78
2022-08-12T23:27:21.378Z,101869.81
2022-08-12T23:30:17.555Z,101865.53
2022-08-12T23:32:37.396Z,101857.69
2022-08-12T23:35:06.719Z,101848.81
2022-08-12T23:37:46.613Z,101845.81
2022-08-12T23:40:22.137Z,101832.63
2022-08-12T23:42:50.670Z,101823.50
2022-08-12T23:45:20.537Z,101819.88
2022-08-12T23:47:58.372Z,101814.06
2022-08-12T23:50:34.336Z,101798.88
2022-08-12T23:53:05.381Z,101790.31
2022-08-12T23:55:38.221Z,101787.09
2022-08-12T23:58:20.784Z,101760.94
